Главная страница
METAR-TAF:

METAR-TAF

Аэропорты :

Ташкент, Узбекистан

Международный аэропорт имени Ислама Каримова

широта: 41-16N, долгота: 069-16E, высота над уровнем моря: 489 м

Текущие метеонаблюдения

Эта сводка был подготовлена 40 минут назад, в 21:00 UTC
Ветер 6 Узел от северный
Температура 13°C
Влажность 77%
Давление 1024 hPa
Видимость 10 км и более
Нет облачности ниже 1500 м, и нет кучево-дождевой облачности

METAR: UTTT 252100Z 01006KT CAVOK 13/09 Q1024 R08R/CLRD70 NOSIG

Время: 02:40 (21:40 UTC)

Прогноз

Эта сводка был подготовлена 4 часа и 40 минут назад, в 17:00 UTC
Прогноз действительный с 25-го 18 UTC до 26-го 18 UTC
Ветер 2 Узел переменных направлений
Видимость: 7000 м
временами
С 25-го 18 UTC до 26-го 03 UTC
Ветер 15 Узел от северно-северо-западный
Видимость: 3000 м
небольшая облачность на высоте 5000 фута, Кучево-дождевые.
дымка, дым

TAF: UTTT 251700Z 2518/2618 VRB02KT 7000 NSC TEMPO 2518/2603 34015KT 3000 BR FU FEW050CB

Метеонаблюдения и прогнозы для более 4000 аэропортов (сводки METAR и TAF).

Имеющиеся станции представлены на карте желтыми и красными точками.

Чтобы увидеть название станции, наведите на нее мышь.

Затем щелкните, чтобы увидеть метеонаблюдения и метеопрогнозы.

Управление картой: чтобы увеличить масштаб, щелкните зеленые кнопки с черным крестиком; чтобы уменьшить масштаб, щелкните зеленую кнопку с тире; для просмотра соседних карт щелкайте зеленые стрелки.


METAR-TAF: